sensor_id;sensor_type;location;lat;lon;timestamp;temperature;humidity
32095;DHT22;18608;53.688;10.748;2024-01-10T00:21:08;-5.80;99.90
32095;DHT22;18608;53.688;10.748;2024-01-10T00:28:26;-5.80;99.90
32095;DHT22;18608;53.688;10.748;2024-01-10T00:45:29;-6.80;99.90
32095;DHT22;18608;53.688;10.748;2024-01-10T00:57:39;-6.40;99.90
32095;DHT22;18608;53.688;10.748;2024-01-10T01:00:06;-6.30;99.90
32095;DHT22;18608;53.688;10.748;2024-01-10T01:02:32;-6.20;99.90
32095;DHT22;18608;53.688;10.748;2024-01-10T01:09:50;-6.00;99.90
32095;DHT22;18608;53.688;10.748;2024-01-10T01:12:15;-5.90;99.90
32095;DHT22;18608;53.688;10.748;2024-01-10T01:46:21;-5.80;99.90
32095;DHT22;18608;53.688;10.748;2024-01-10T01:51:14;-5.50;99.90
32095;DHT22;18608;53.688;10.748;2024-01-10T01:53:40;-5.50;99.90
32095;DHT22;18608;53.688;10.748;2024-01-10T01:56:08;-5.40;99.90
32095;DHT22;18608;53.688;10.748;2024-01-10T01:58:36;-5.30;99.90
32095;DHT22;18608;53.688;10.748;2024-01-10T02:01:03;-5.20;99.90
32095;DHT22;18608;53.688;10.748;2024-01-10T02:03:30;-5.20;99.90
32095;DHT22;18608;53.688;10.748;2024-01-10T02:05:57;-5.20;99.90
32095;DHT22;18608;53.688;10.748;2024-01-10T02:13:16;-5.00;99.90
32095;DHT22;18608;53.688;10.748;2024-01-10T02:15:42;-4.90;99.90
32095;DHT22;18608;53.688;10.748;2024-01-10T02:40:06;-5.20;99.90
32095;DHT22;18608;53.688;10.748;2024-01-10T03:09:22;-4.70;99.90
32095;DHT22;18608;53.688;10.748;2024-01-10T03:16:40;-4.60;99.90
32095;DHT22;18608;53.688;10.748;2024-01-10T03:23:59;-4.50;99.90
32095;DHT22;18608;53.688;10.748;2024-01-10T03:26:25;-4.30;99.90
32095;DHT22;18608;53.688;10.748;2024-01-10T03:28:51;-4.30;99.90
32095;DHT22;18608;53.688;10.748;2024-01-10T03:31:17;-3.70;99.90
32095;DHT22;18608;53.688;10.748;2024-01-10T03:36:12;-4.00;99.90
32095;DHT22;18608;53.688;10.748;2024-01-10T03:38:37;-3.90;99.90
32095;DHT22;18608;53.688;10.748;2024-01-10T03:50:48;-4.10;99.90
32095;DHT22;18608;53.688;10.748;2024-01-10T04:07:51;-4.20;99.90
32095;DHT22;18608;53.688;10.748;2024-01-10T04:10:17;-4.10;99.90
32095;DHT22;18608;53.688;10.748;2024-01-10T04:12:44;-4.10;99.90
32095;DHT22;18608;53.688;10.748;2024-01-10T04:15:10;-4.00;99.90
32095;DHT22;18608;53.688;10.748;2024-01-10T04:22:28;-3.80;99.90
32095;DHT22;18608;53.688;10.748;2024-01-10T04:56:35;-4.00;99.90
32095;DHT22;18608;53.688;10.748;2024-01-10T05:01:31;-4.00;99.90
32095;DHT22;18608;53.688;10.748;2024-01-10T05:08:49;-3.90;99.90
32095;DHT22;18608;53.688;10.748;2024-01-10T05:11:15;-3.80;99.90
32095;DHT22;18608;53.688;10.748;2024-01-10T05:18:33;-3.70;99.90
32095;DHT22;18608;53.688;10.748;2024-01-10T05:21:00;-3.60;99.90
32095;DHT22;18608;53.688;10.748;2024-01-10T05:35:37;-3.40;99.90
32095;DHT22;18608;53.688;10.748;2024-01-10T05:42:56;-3.40;99.90
32095;DHT22;18608;53.688;10.748;2024-01-10T05:50:14;-3.20;99.90
32095;DHT22;18608;53.688;10.748;2024-01-10T05:55:06;-3.40;99.90
32095;DHT22;18608;53.688;10.748;2024-01-10T05:57:34;-5.40;99.90
32095;DHT22;18608;53.688;10.748;2024-01-10T06:00:00;-3.70;99.90
32095;DHT22;18608;53.688;10.748;2024-01-10T06:02:26;-3.60;99.90
32095;DHT22;18608;53.688;10.748;2024-01-10T06:07:19;-3.70;99.90
32095;DHT22;18608;53.688;10.748;2024-01-10T06:17:05;-3.60;99.90
32095;DHT22;18608;53.688;10.748;2024-01-10T06:21:58;-3.70;99.90
32095;DHT22;18608;53.688;10.748;2024-01-10T06:29:17;-3.60;99.90
32095;DHT22;18608;53.688;10.748;2024-01-10T06:36:35;-3.70;99.90
32095;DHT22;18608;53.688;10.748;2024-01-10T06:39:01;-3.70;99.90
32095;DHT22;18608;53.688;10.748;2024-01-10T06:46:20;-3.60;99.90
32095;DHT22;18608;53.688;10.748;2024-01-10T06:51:15;-3.80;99.90
32095;DHT22;18608;53.688;10.748;2024-01-10T07:01:01;-3.80;99.90
32095;DHT22;18608;53.688;10.748;2024-01-10T07:05:52;-3.60;99.90
32095;DHT22;18608;53.688;10.748;2024-01-10T07:15:36;-3.60;99.90
32095;DHT22;18608;53.688;10.748;2024-01-10T07:22:56;-3.80;99.90
32095;DHT22;18608;53.688;10.748;2024-01-10T07:32:43;-3.80;99.90
32095;DHT22;18608;53.688;10.748;2024-01-10T07:35:10;-3.80;99.90
32095;DHT22;18608;53.688;10.748;2024-01-10T07:37:40;-3.80;99.90
32095;DHT22;18608;53.688;10.748;2024-01-10T07:40:07;-3.70;99.90
32095;DHT22;18608;53.688;10.748;2024-01-10T07:42:42;-3.60;99.90
32095;DHT22;18608;53.688;10.748;2024-01-10T07:47:35;-3.60;99.90
32095;DHT22;18608;53.688;10.748;2024-01-10T07:50:08;-3.50;99.90
32095;DHT22;18608;53.688;10.748;2024-01-10T07:55:00;-3.40;99.90
32095;DHT22;18608;53.688;10.748;2024-01-10T07:57:27;-3.40;99.90
32095;DHT22;18608;53.688;10.748;2024-01-10T07:59:53;-3.30;99.90
32095;DHT22;18608;53.688;10.748;2024-01-10T08:02:18;-3.10;99.90
32095;DHT22;18608;53.688;10.748;2024-01-10T08:09:37;-3.00;99.90
32095;DHT22;18608;53.688;10.748;2024-01-10T08:12:06;-2.90;99.90
32095;DHT22;18608;53.688;10.748;2024-01-10T08:19:26;-2.60;99.90
32095;DHT22;18608;53.688;10.748;2024-01-10T08:21:53;-2.40;99.90
32095;DHT22;18608;53.688;10.748;2024-01-10T08:24:19;-2.30;99.90
32095;DHT22;18608;53.688;10.748;2024-01-10T08:26:46;-2.20;99.90
32095;DHT22;18608;53.688;10.748;2024-01-10T09:30:09;-1.50;99.90
32095;DHT22;18608;53.688;10.748;2024-01-10T09:44:52;-1.90;99.90
32095;DHT22;18608;53.688;10.748;2024-01-10T09:47:20;-1.80;99.90
32095;DHT22;18608;53.688;10.748;2024-01-10T09:52:20;-1.50;99.90
32095;DHT22;18608;53.688;10.748;2024-01-10T09:54:53;-1.40;99.90
32095;DHT22;18608;53.688;10.748;2024-01-10T09:59:47;-1.60;99.90
32095;DHT22;18608;53.688;10.748;2024-01-10T10:02:13;-1.50;99.90
32095;DHT22;18608;53.688;10.748;2024-01-10T10:05:04;-1.50;99.90
32095;DHT22;18608;53.688;10.748;2024-01-10T10:07:59;-1.30;99.90
32095;DHT22;18608;53.688;10.748;2024-01-10T10:12:53;-1.80;99.90
32095;DHT22;18608;53.688;10.748;2024-01-10T10:15:23;-1.90;99.90
32095;DHT22;18608;53.688;10.748;2024-01-10T10:20:25;-2.00;99.90
32095;DHT22;18608;53.688;10.748;2024-01-10T10:23:04;-2.00;99.90
32095;DHT22;18608;53.688;10.748;2024-01-10T10:25:42;-2.20;99.90
32095;DHT22;18608;53.688;10.748;2024-01-10T10:33:02;-1.80;99.90
32095;DHT22;18608;53.688;10.748;2024-01-10T10:35:28;-2.00;99.90
32095;DHT22;18608;53.688;10.748;2024-01-10T10:40:21;-1.90;99.90
32095;DHT22;18608;53.688;10.748;2024-01-10T10:42:48;-1.90;99.90
32095;DHT22;18608;53.688;10.748;2024-01-10T10:45:16;-1.80;99.90
32095;DHT22;18608;53.688;10.748;2024-01-10T10:47:48;-1.80;99.90
32095;DHT22;18608;53.688;10.748;2024-01-10T10:50:24;-1.70;99.90
32095;DHT22;18608;53.688;10.748;2024-01-10T10:52:50;-1.70;99.90
32095;DHT22;18608;53.688;10.748;2024-01-10T10:55:18;-1.80;99.90
32095;DHT22;18608;53.688;10.748;2024-01-10T10:57:48;-1.70;99.90
32095;DHT22;18608;53.688;10.748;2024-01-10T11:00:15;-1.70;99.90
32095;DHT22;18608;53.688;10.748;2024-01-10T11:02:42;-1.80;99.90
32095;DHT22;18608;53.688;10.748;2024-01-10T11:05:09;-1.80;99.90
32095;DHT22;18608;53.688;10.748;2024-01-10T11:07:42;-1.70;99.90
32095;DHT22;18608;53.688;10.748;2024-01-10T11:10:17;-1.60;99.90
32095;DHT22;18608;53.688;10.748;2024-01-10T11:21:50;-1.30;99.90
32095;DHT22;18608;53.688;10.748;2024-01-10T11:24:22;-1.20;99.90
32095;DHT22;18608;53.688;10.748;2024-01-10T11:29:15;-1.30;99.90
32095;DHT22;18608;53.688;10.748;2024-01-10T11:34:08;-1.60;99.90
32095;DHT22;18608;53.688;10.748;2024-01-10T11:39:04;-1.70;99.90
32095;DHT22;18608;53.688;10.748;2024-01-10T11:46:50;-1.70;99.90
32095;DHT22;18608;53.688;10.748;2024-01-10T11:49:20;-1.60;99.90
32095;DHT22;18608;53.688;10.748;2024-01-10T11:51:51;-1.50;99.90
32095;DHT22;18608;53.688;10.748;2024-01-10T11:54:37;-1.50;99.90
32095;DHT22;18608;53.688;10.748;2024-01-10T11:57:14;-1.50;99.90
32095;DHT22;18608;53.688;10.748;2024-01-10T11:59:42;-1.20;99.90
32095;DHT22;18608;53.688;10.748;2024-01-10T12:02:09;-1.00;99.90
32095;DHT22;18608;53.688;10.748;2024-01-10T12:04:35;-1.20;99.90
32095;DHT22;18608;53.688;10.748;2024-01-10T12:07:04;-1.10;99.90
32095;DHT22;18608;53.688;10.748;2024-01-10T12:11:58;-0.80;99.90
32095;DHT22;18608;53.688;10.748;2024-01-10T12:16:53;-0.70;99.90
32095;DHT22;18608;53.688;10.748;2024-01-10T12:26:46;-1.10;99.90
32095;DHT22;18608;53.688;10.748;2024-01-10T12:31:39;-1.40;99.90
32095;DHT22;18608;53.688;10.748;2024-01-10T12:34:07;-1.40;99.90
32095;DHT22;18608;53.688;10.748;2024-01-10T12:41:26;-1.10;99.90
32095;DHT22;18608;53.688;10.748;2024-01-10T12:43:55;-0.90;99.90
32095;DHT22;18608;53.688;10.748;2024-01-10T12:46:21;-1.00;99.90
32095;DHT22;18608;53.688;10.748;2024-01-10T12:49:00;-1.00;99.90
32095;DHT22;18608;53.688;10.748;2024-01-10T12:51:27;-1.20;99.90
32095;DHT22;18608;53.688;10.748;2024-01-10T12:53:55;-1.40;99.90
32095;DHT22;18608;53.688;10.748;2024-01-10T13:06:09;-2.00;99.90
32095;DHT22;18608;53.688;10.748;2024-01-10T13:11:01;-1.90;99.90
32095;DHT22;18608;53.688;10.748;2024-01-10T13:15:53;-2.00;99.90
32095;DHT22;18608;53.688;10.748;2024-01-10T13:25:41;-2.20;99.90
32095;DHT22;18608;53.688;10.748;2024-01-10T13:35:25;-1.80;99.90
32095;DHT22;18608;53.688;10.748;2024-01-10T13:47:38;-1.70;99.90
32095;DHT22;18608;53.688;10.748;2024-01-10T13:50:05;-1.80;99.90
32095;DHT22;18608;53.688;10.748;2024-01-10T13:52:32;-1.70;99.90
32095;DHT22;18608;53.688;10.748;2024-01-10T13:54:59;-1.90;99.90
32095;DHT22;18608;53.688;10.748;2024-01-10T14:07:11;-1.80;99.90
32095;DHT22;18608;53.688;10.748;2024-01-10T14:16:57;-2.00;99.90
32095;DHT22;18608;53.688;10.748;2024-01-10T14:38:53;-2.20;99.90
32095;DHT22;18608;53.688;10.748;2024-01-10T14:58:23;-1.90;99.90
32095;DHT22;18608;53.688;10.748;2024-01-10T15:05:41;-2.10;99.90
32095;DHT22;18608;53.688;10.748;2024-01-10T15:08:08;-2.10;99.90
32095;DHT22;18608;53.688;10.748;2024-01-10T15:10:37;-2.00;99.90
32095;DHT22;18608;53.688;10.748;2024-01-10T15:13:12;-2.20;99.90
32095;DHT22;18608;53.688;10.748;2024-01-10T15:15:39;-2.20;99.90
32095;DHT22;18608;53.688;10.748;2024-01-10T15:20:31;-2.00;99.90
32095;DHT22;18608;53.688;10.748;2024-01-10T15:25:26;-2.00;99.90
32095;DHT22;18608;53.688;10.748;2024-01-10T15:27:52;-1.90;99.90
32095;DHT22;18608;53.688;10.748;2024-01-10T15:30:18;-1.80;99.90
32095;DHT22;18608;53.688;10.748;2024-01-10T15:32:47;-1.80;99.90
32095;DHT22;18608;53.688;10.748;2024-01-10T15:40:10;-1.70;99.90
32095;DHT22;18608;53.688;10.748;2024-01-10T15:45:03;-1.80;99.90
32095;DHT22;18608;53.688;10.748;2024-01-10T15:54:55;-1.90;99.90
32095;DHT22;18608;53.688;10.748;2024-01-10T15:57:21;-2.00;99.90
32095;DHT22;18608;53.688;10.748;2024-01-10T16:02:14;-1.90;99.90
32095;DHT22;18608;53.688;10.748;2024-01-10T16:07:06;-1.60;99.90
32095;DHT22;18608;53.688;10.748;2024-01-10T16:11:58;-1.90;99.90
32095;DHT22;18608;53.688;10.748;2024-01-10T16:36:19;-1.60;99.90
32095;DHT22;18608;53.688;10.748;2024-01-10T16:41:11;-1.50;99.90
32095;DHT22;18608;53.688;10.748;2024-01-10T16:43:37;-1.50;99.90
32095;DHT22;18608;53.688;10.748;2024-01-10T16:48:29;-1.70;99.90
32095;DHT22;18608;53.688;10.748;2024-01-10T17:10:27;-1.60;99.90
32095;DHT22;18608;53.688;10.748;2024-01-10T17:25:08;-1.30;99.90
32095;DHT22;18608;53.688;10.748;2024-01-10T17:27:36;-1.10;99.90
32095;DHT22;18608;53.688;10.748;2024-01-10T17:30:03;-1.10;99.90
32095;DHT22;18608;53.688;10.748;2024-01-10T17:37:22;-1.40;99.90
32095;DHT22;18608;53.688;10.748;2024-01-10T17:39:49;-1.20;99.90
32095;DHT22;18608;53.688;10.748;2024-01-10T17:42:14;-1.10;99.90
32095;DHT22;18608;53.688;10.748;2024-01-10T17:47:06;-0.90;99.90
32095;DHT22;18608;53.688;10.748;2024-01-10T17:49:36;-1.00;99.90
32095;DHT22;18608;53.688;10.748;2024-01-10T18:04:14;-1.30;99.90
32095;DHT22;18608;53.688;10.748;2024-01-10T18:18:53;-0.80;99.90
32095;DHT22;18608;53.688;10.748;2024-01-10T18:21:19;-0.70;99.90
32095;DHT22;18608;53.688;10.748;2024-01-10T18:28:37;-1.10;99.90
32095;DHT22;18608;53.688;10.748;2024-01-10T18:31:03;-0.90;99.90
32095;DHT22;18608;53.688;10.748;2024-01-10T18:43:14;-0.90;99.90
32095;DHT22;18608;53.688;10.748;2024-01-10T18:52:59;-1.30;99.90
32095;DHT22;18608;53.688;10.748;2024-01-10T18:57:51;-1.10;99.90
32095;DHT22;18608;53.688;10.748;2024-01-10T19:00:19;-0.90;99.90
32095;DHT22;18608;53.688;10.748;2024-01-10T19:02:54;-0.80;99.90
32095;DHT22;18608;53.688;10.748;2024-01-10T19:05:22;-0.70;99.90
32095;DHT22;18608;53.688;10.748;2024-01-10T19:17:33;-1.00;99.90
32095;DHT22;18608;53.688;10.748;2024-01-10T19:22:26;-1.20;99.90
32095;DHT22;18608;53.688;10.748;2024-01-10T19:27:19;-1.00;99.90
32095;DHT22;18608;53.688;10.748;2024-01-10T19:32:12;-1.20;99.90
32095;DHT22;18608;53.688;10.748;2024-01-10T19:37:04;-1.30;99.90
32095;DHT22;18608;53.688;10.748;2024-01-10T19:39:34;-1.20;99.90
32095;DHT22;18608;53.688;10.748;2024-01-10T19:44:26;-1.40;99.90
32095;DHT22;18608;53.688;10.748;2024-01-10T19:46:52;-1.40;99.90
32095;DHT22;18608;53.688;10.748;2024-01-10T19:49:18;-1.40;99.90
32095;DHT22;18608;53.688;10.748;2024-01-10T19:54:11;-1.10;99.90
32095;DHT22;18608;53.688;10.748;2024-01-10T19:56:37;-1.20;99.90
32095;DHT22;18608;53.688;10.748;2024-01-10T20:03:56;-1.20;99.90
32095;DHT22;18608;53.688;10.748;2024-01-10T20:06:23;-1.20;99.90
32095;DHT22;18608;53.688;10.748;2024-01-10T20:08:48;-1.20;99.90
32095;DHT22;18608;53.688;10.748;2024-01-10T20:13:41;-1.20;99.90
32095;DHT22;18608;53.688;10.748;2024-01-10T20:16:07;-1.20;99.90
32095;DHT22;18608;53.688;10.748;2024-01-10T20:21:02;-1.10;99.90
32095;DHT22;18608;53.688;10.748;2024-01-10T20:30:48;-1.10;99.90
32095;DHT22;18608;53.688;10.748;2024-01-10T20:40:38;-1.30;99.90
32095;DHT22;18608;53.688;10.748;2024-01-10T20:57:41;-1.30;99.90
32095;DHT22;18608;53.688;10.748;2024-01-10T21:00:08;-1.50;99.90
32095;DHT22;18608;53.688;10.748;2024-01-10T21:02:36;-1.30;99.90
32095;DHT22;18608;53.688;10.748;2024-01-10T21:05:02;-1.30;99.90
32095;DHT22;18608;53.688;10.748;2024-01-10T21:07:30;-1.40;99.90
32095;DHT22;18608;53.688;10.748;2024-01-10T21:14:48;-1.10;99.90
32095;DHT22;18608;53.688;10.748;2024-01-10T21:17:16;-1.00;99.90
32095;DHT22;18608;53.688;10.748;2024-01-10T21:22:08;-1.00;99.90
32095;DHT22;18608;53.688;10.748;2024-01-10T21:36:49;-1.30;99.90
32095;DHT22;18608;53.688;10.748;2024-01-10T21:41:41;-1.30;99.90
32095;DHT22;18608;53.688;10.748;2024-01-10T21:46:33;-1.50;99.90
32095;DHT22;18608;53.688;10.748;2024-01-10T21:51:25;-1.60;99.90
32095;DHT22;18608;53.688;10.748;2024-01-10T21:58:44;-1.40;99.90
32095;DHT22;18608;53.688;10.748;2024-01-10T22:06:03;-1.20;99.90
32095;DHT22;18608;53.688;10.748;2024-01-10T22:13:21;-1.20;99.90
32095;DHT22;18608;53.688;10.748;2024-01-10T22:20:39;-1.20;99.90
32095;DHT22;18608;53.688;10.748;2024-01-10T22:45:03;-0.90;99.90
32095;DHT22;18608;53.688;10.748;2024-01-10T23:21:37;-1.10;99.90
32095;DHT22;18608;53.688;10.748;2024-01-10T23:24:02;-0.90;99.90
32095;DHT22;18608;53.688;10.748;2024-01-10T23:38:41;-1.00;99.90
32095;DHT22;18608;53.688;10.748;2024-01-10T23:41:07;-1.00;99.90
32095;DHT22;18608;53.688;10.748;2024-01-10T23:43:33;-1.00;99.90
32095;DHT22;18608;53.688;10.748;2024-01-10T23:45:59;-1.00;99.90
32095;DHT22;18608;53.688;10.748;2024-01-10T23:50:51;-1.00;99.90
32095;DHT22;18608;53.688;10.748;2024-01-10T23:58:09;-1.20;99.90
